Time,TemperatureF,DewpointF,PressureIn,WindDirection,WindDirectionDegrees,WindSpeedMPH,WindSpeedGustMPH,Humidity,HourlyPrecipIn,Conditions,Clouds,dailyrainin,SoftwareType,DateUTC
2013-06-03 00:12:00,70.4,68.0,29.88,SW,218,2.0,6.0,93,0.01,,,0.00,weatherlink.com 1.10,2013-06-03 04:12:00,
2013-06-03 00:27:00,70.4,68.0,29.88,SW,234,1.0,5.0,93,0.01,,,0.00,weatherlink.com 1.10,2013-06-03 04:27:00,
2013-06-03 00:42:00,70.3,68.0,29.88,WSW,250,3.0,5.0,93,0.00,,,0.00,weatherlink.com 1.10,2013-06-03 04:42:00,
2013-06-03 00:57:00,70.4,68.0,29.88,WSW,242,1.0,4.0,93,0.00,,,0.00,weatherlink.com 1.10,2013-06-03 04:57:00,
2013-06-03 01:12:00,70.4,68.0,29.88,SSW,211,0.0,5.0,93,0.00,,,0.00,weatherlink.com 1.10,2013-06-03 05:12:00,
2013-06-03 01:27:00,70.3,68.0,29.88,WSW,246,1.0,5.0,93,0.00,,,0.00,weatherlink.com 1.10,2013-06-03 05:27:00,
2013-06-03 01:42:00,70.2,68.0,29.88,SW,226,4.0,5.0,93,0.00,,,0.00,weatherlink.com 1.10,2013-06-03 05:42:00,
2013-06-03 01:57:00,70.2,68.0,29.88,WSW,252,3.0,6.0,93,0.01,,,0.01,weatherlink.com 1.10,2013-06-03 05:57:00,
2013-06-03 02:12:00,70.1,68.0,29.87,SW,233,5.0,5.0,93,0.01,,,0.01,weatherlink.com 1.10,2013-06-03 06:12:00,
2013-06-03 02:27:00,70.2,68.0,29.88,SW,215,3.0,6.0,92,0.01,,,0.01,weatherlink.com 1.10,2013-06-03 06:27:00,
2013-06-03 02:42:00,70.3,68.0,29.88,WSW,245,7.0,7.0,92,0.01,,,0.01,weatherlink.com 1.10,2013-06-03 06:42:00,
2013-06-03 02:57:00,70.2,68.0,29.88,West,264,3.0,5.0,92,0.00,,,0.01,weatherlink.com 1.10,2013-06-03 06:57:00,
2013-06-03 03:12:00,70.1,68.0,29.87,West,268,4.0,5.0,92,0.00,,,0.01,weatherlink.com 1.10,2013-06-03 07:12:00,
2013-06-03 03:27:00,70.2,68.0,29.87,West,263,2.0,10.0,92,0.00,,,0.01,weatherlink.com 1.10,2013-06-03 07:27:00,
2013-06-03 03:42:00,70.1,68.0,29.87,WSW,243,4.0,7.0,92,0.00,,,0.01,weatherlink.com 1.10,2013-06-03 07:42:00,
2013-06-03 03:57:00,70.2,68.0,29.87,WSW,256,6.0,9.0,92,0.00,,,0.01,weatherlink.com 1.10,2013-06-03 07:57:00,
2013-06-03 04:12:00,70.0,68.0,29.87,SW,231,6.0,7.0,92,0.00,,,0.01,weatherlink.com 1.10,2013-06-03 08:12:00,
2013-06-03 04:27:00,69.9,68.0,29.88,SW,224,3.0,10.0,92,0.00,,,0.01,weatherlink.com 1.10,2013-06-03 08:27:00,
2013-06-03 04:42:00,69.7,68.0,29.87,WNW,291,4.0,12.0,93,0.06,,,0.07,weatherlink.com 1.10,2013-06-03 08:42:00,
2013-06-03 04:57:00,69.6,68.0,29.87,SW,231,2.0,10.0,93,0.07,,,0.08,weatherlink.com 1.10,2013-06-03 08:57:00,
2013-06-03 05:12:00,69.5,68.0,29.87,WSW,243,2.0,8.0,93,0.08,,,0.09,weatherlink.com 1.10,2013-06-03 09:12:00,
2013-06-03 05:27:00,69.4,68.0,29.87,WSW,242,1.0,3.0,94,0.08,,,0.09,weatherlink.com 1.10,2013-06-03 09:27:00,
2013-06-03 05:42:00,69.2,68.0,29.87,WNW,291,2.0,4.0,94,0.04,,,0.11,weatherlink.com 1.10,2013-06-03 09:42:00,
2013-06-03 05:57:00,69.1,67.0,29.88,West,264,2.0,4.0,94,0.03,,,0.11,weatherlink.com 1.10,2013-06-03 09:57:00,
2013-06-03 06:12:00,69.1,67.0,29.88,WSW,255,2.0,4.0,94,0.03,,,0.12,weatherlink.com 1.10,2013-06-03 10:12:00,
2013-06-03 06:27:00,69.1,68.0,29.88,WSW,244,1.0,5.0,95,0.05,,,0.14,weatherlink.com 1.10,2013-06-03 10:27:00,
2013-06-03 06:42:00,69.1,68.0,29.89,WSW,237,2.0,4.0,95,0.04,,,0.15,weatherlink.com 1.10,2013-06-03 10:42:00,
2013-06-03 06:57:00,69.1,68.0,29.89,NW,305,0.0,3.0,95,0.04,,,0.15,weatherlink.com 1.10,2013-06-03 10:57:00,
2013-06-03 07:12:00,69.2,68.0,29.89,West,274,0.0,1.0,95,0.03,,,0.15,weatherlink.com 1.10,2013-06-03 11:12:00,
2013-06-03 07:27:00,69.4,68.0,29.89,WSW,246,0.0,2.0,95,0.02,,,0.16,weatherlink.com 1.10,2013-06-03 11:27:00,
2013-06-03 07:42:00,69.4,68.0,29.89,SW,226,1.0,2.0,95,0.01,,,0.16,weatherlink.com 1.10,2013-06-03 11:42:00,
2013-06-03 07:57:00,69.5,68.0,29.89,WNW,297,2.0,2.0,94,0.01,,,0.16,weatherlink.com 1.10,2013-06-03 11:57:00,
2013-06-03 08:12:00,69.1,67.0,29.88,North,360,4.0,5.0,94,0.04,,,0.19,weatherlink.com 1.10,2013-06-03 12:12:00,
2013-06-03 08:27:00,67.9,66.0,29.88,WNW,295,0.0,5.0,93,0.16,,,0.32,weatherlink.com 1.10,2013-06-03 12:27:00,
2013-06-03 08:42:00,67.7,66.0,29.89,SW,224,0.0,3.0,94,0.17,,,0.33,weatherlink.com 1.10,2013-06-03 12:42:00,
2013-06-03 08:57:00,67.7,66.0,29.89,WSW,237,0.0,3.0,95,0.18,,,0.34,weatherlink.com 1.10,2013-06-03 12:57:00,
2013-06-03 09:12:00,67.6,66.0,29.89,WSW,255,1.0,3.0,95,0.17,,,0.36,weatherlink.com 1.10,2013-06-03 13:12:00,
2013-06-03 09:27:00,67.7,66.0,29.89,SW,224,2.0,3.0,95,0.05,,,0.37,weatherlink.com 1.10,2013-06-03 13:27:00,
2013-06-03 09:42:00,68.0,67.0,29.88,WNW,288,0.0,2.0,95,0.05,,,0.38,weatherlink.com 1.10,2013-06-03 13:42:00,
2013-06-03 09:57:00,68.6,67.0,29.88,West,273,0.0,2.0,95,0.04,,,0.38,weatherlink.com 1.10,2013-06-03 13:57:00,
2013-06-03 10:12:00,69.5,68.0,29.88,NW,309,3.0,5.0,94,0.02,,,0.38,weatherlink.com 1.10,2013-06-03 14:12:00,
2013-06-03 10:27:00,70.7,68.0,29.88,WNW,302,4.0,6.0,92,0.00,,,0.38,weatherlink.com 1.10,2013-06-03 14:27:00,
2013-06-03 10:42:00,71.6,68.0,29.88,West,259,3.0,6.0,89,0.00,,,0.38,weatherlink.com 1.10,2013-06-03 14:42:00,
2013-06-03 10:57:00,72.1,68.0,29.88,WNW,298,5.0,10.0,87,0.00,,,0.38,weatherlink.com 1.10,2013-06-03 14:57:00,
2013-06-03 11:12:00,72.4,68.0,29.88,NW,306,4.0,9.0,86,0.00,,,0.38,weatherlink.com 1.10,2013-06-03 15:12:00,
2013-06-03 11:28:00,72.9,68.0,29.88,NW,316,3.0,7.0,85,0.00,,,0.38,weatherlink.com 1.10,2013-06-03 15:28:00,
2013-06-03 11:43:00,73.4,68.0,29.87,WNW,297,4.0,6.0,83,0.00,,,0.38,weatherlink.com 1.10,2013-06-03 15:43:00,
2013-06-03 11:58:00,73.8,68.0,29.87,WNW,301,3.0,7.0,81,0.00,,,0.38,weatherlink.com 1.10,2013-06-03 15:58:00,
2013-06-03 12:13:00,74.2,68.0,29.87,NNE,28,5.0,7.0,80,0.00,,,0.38,weatherlink.com 1.10,2013-06-03 16:13:00,
2013-06-03 12:28:00,75.0,68.0,29.87,NW,322,3.0,6.0,80,0.00,,,0.38,weatherlink.com 1.10,2013-06-03 16:28:00,
2013-06-03 12:43:00,75.1,67.0,29.86,NNE,29,3.0,6.0,77,0.00,,,0.38,weatherlink.com 1.10,2013-06-03 16:43:00,
2013-06-03 12:58:00,75.7,68.0,29.86,NW,318,5.0,5.0,77,0.00,,,0.38,weatherlink.com 1.10,2013-06-03 16:58:00,
2013-06-03 13:13:00,75.9,68.0,29.86,NE,49,2.0,3.0,77,0.00,,,0.38,weatherlink.com 1.10,2013-06-03 17:13:00,
2013-06-03 13:28:00,76.7,68.0,29.85,East,80,3.0,4.0,74,0.00,,,0.38,weatherlink.com 1.10,2013-06-03 17:28:00,
2013-06-03 13:43:00,76.3,68.0,29.85,SE,126,2.0,4.0,76,0.00,,,0.38,weatherlink.com 1.10,2013-06-03 17:43:00,
2013-06-03 13:58:00,76.9,68.0,29.85,SE,131,1.0,4.0,74,0.00,,,0.38,weatherlink.com 1.10,2013-06-03 17:58:00,
2013-06-03 14:14:00,77.3,69.0,29.85,SSE,160,4.0,6.0,76,0.00,,,0.38,weatherlink.com 1.10,2013-06-03 18:14:00,
2013-06-03 14:28:00,76.9,70.0,29.85,South,180,6.0,7.0,78,0.00,,,0.38,weatherlink.com 1.10,2013-06-03 18:28:00,
2013-06-03 14:43:00,76.6,70.0,29.85,SSE,160,7.0,8.0,80,0.00,,,0.38,weatherlink.com 1.10,2013-06-03 18:43:00,
2013-06-03 14:58:00,76.0,69.0,29.84,SSW,193,5.0,8.0,80,0.00,,,0.38,weatherlink.com 1.10,2013-06-03 18:58:00,
2013-06-03 15:13:00,76.0,69.0,29.84,SSW,193,5.0,8.0,80,0.00,,,0.38,weatherlink.com 1.10,2013-06-03 19:13:00,
2013-06-03 15:28:00,76.1,70.0,29.84,SSE,167,7.0,8.0,80,0.00,,,0.38,weatherlink.com 1.10,2013-06-03 19:28:00,
2013-06-03 15:43:00,76.1,70.0,29.84,South,184,7.0,9.0,80,0.00,,,0.38,weatherlink.com 1.10,2013-06-03 19:43:00,
2013-06-03 15:58:00,75.7,70.0,29.83,SSE,153,9.0,12.0,81,0.00,,,0.38,weatherlink.com 1.10,2013-06-03 19:58:00,
2013-06-03 16:13:00,76.3,70.0,29.83,South,181,6.0,11.0,80,0.00,,,0.38,weatherlink.com 1.10,2013-06-03 20:13:00,
2013-06-03 16:28:00,76.4,69.0,29.82,SSW,203,8.0,10.0,79,0.00,,,0.38,weatherlink.com 1.10,2013-06-03 20:28:00,
2013-06-03 16:43:00,76.0,69.0,29.83,WNW,288,2.0,7.0,80,0.00,,,0.38,weatherlink.com 1.10,2013-06-03 20:43:00,
2013-06-03 16:58:00,69.6,67.0,29.86,NNE,27,6.0,24.0,91,0.10,,,0.48,weatherlink.com 1.10,2013-06-03 20:58:00,
2013-06-03 17:13:00,68.5,67.0,29.86,ENE,60,6.0,8.0,94,0.10,,,0.48,weatherlink.com 1.10,2013-06-03 21:13:00,
2013-06-03 17:28:00,68.4,67.0,29.86,ENE,63,7.0,11.0,94,0.11,,,0.49,weatherlink.com 1.10,2013-06-03 21:28:00,
2013-06-03 17:43:00,68.5,66.0,29.86,ENE,70,6.0,8.0,92,0.11,,,0.49,weatherlink.com 1.10,2013-06-03 21:43:00,
2013-06-03 17:58:00,68.9,67.0,29.85,ENE,63,6.0,8.0,93,0.01,,,0.49,weatherlink.com 1.10,2013-06-03 21:58:00,
2013-06-03 18:13:00,69.4,67.0,29.85,ENE,60,8.0,10.0,93,0.01,,,0.49,weatherlink.com 1.10,2013-06-03 22:13:00,
2013-06-03 18:28:00,69.7,68.0,29.86,ENE,63,6.0,9.0,93,0.00,,,0.49,weatherlink.com 1.10,2013-06-03 22:28:00,
2013-06-03 18:43:00,69.7,68.0,29.86,NE,43,4.0,5.0,93,0.00,,,0.49,weatherlink.com 1.10,2013-06-03 22:43:00,
2013-06-03 18:58:00,69.8,68.0,29.86,NW,304,1.0,3.0,94,0.00,,,0.49,weatherlink.com 1.10,2013-06-03 22:58:00,
2013-06-03 19:13:00,70.1,68.0,29.87,West,280,1.0,1.0,94,0.00,,,0.49,weatherlink.com 1.10,2013-06-03 23:13:00,
2013-06-03 19:28:00,70.2,69.0,29.87,West,274,1.0,3.0,94,0.00,,,0.49,weatherlink.com 1.10,2013-06-03 23:28:00,
2013-06-03 19:43:00,70.8,69.0,29.87,West,268,1.0,3.0,93,0.00,,,0.49,weatherlink.com 1.10,2013-06-03 23:43:00,
2013-06-03 19:58:00,71.4,69.0,29.87,West,269,2.0,2.0,93,0.00,,,0.49,weatherlink.com 1.10,2013-06-03 23:58:00,
2013-06-03 20:13:00,70.7,69.0,29.88,NW,309,0.0,2.0,93,0.00,,,0.49,weatherlink.com 1.10,2013-06-04 00:13:00,
2013-06-03 20:28:00,70.3,69.0,29.88,NW,309,1.0,2.0,94,0.00,,,0.49,weatherlink.com 1.10,2013-06-04 00:28:00,
2013-06-03 20:43:00,70.0,68.0,29.88,WNW,298,1.0,2.0,94,0.00,,,0.49,weatherlink.com 1.10,2013-06-04 00:43:00,
2013-06-03 20:58:00,69.6,68.0,29.88,WNW,298,2.0,2.0,95,0.00,,,0.49,weatherlink.com 1.10,2013-06-04 00:58:00,
2013-06-03 21:13:00,69.3,68.0,29.88,NW,316,2.0,4.0,95,0.00,,,0.49,weatherlink.com 1.10,2013-06-04 01:13:00,
2013-06-03 21:28:00,69.0,68.0,29.88,NW,309,1.0,3.0,95,0.00,,,0.49,weatherlink.com 1.10,2013-06-04 01:28:00,
2013-06-03 21:43:00,68.7,67.0,29.89,WNW,288,1.0,2.0,95,0.00,,,0.49,weatherlink.com 1.10,2013-06-04 01:43:00,
2013-06-03 21:58:00,68.4,67.0,29.90,WNW,293,1.0,3.0,96,0.00,,,0.49,weatherlink.com 1.10,2013-06-04 01:58:00,
2013-06-03 22:13:00,68.0,67.0,29.90,West,271,0.0,1.0,96,0.00,,,0.49,weatherlink.com 1.10,2013-06-04 02:13:00,
2013-06-03 22:28:00,67.8,67.0,29.91,NW,305,2.0,4.0,96,0.00,,,0.49,weatherlink.com 1.10,2013-06-04 02:28:00,
2013-06-03 22:44:00,68.2,67.0,29.92,NW,315,4.0,5.0,95,0.00,,,0.49,weatherlink.com 1.10,2013-06-04 02:44:00,
2013-06-03 22:59:00,68.5,67.0,29.92,NW,319,2.0,5.0,94,0.00,,,0.49,weatherlink.com 1.10,2013-06-04 02:59:00,
2013-06-03 23:14:00,68.7,67.0,29.93,NW,321,1.0,4.0,93,0.00,,,0.49,weatherlink.com 1.10,2013-06-04 03:14:00,
2013-06-03 23:29:00,68.5,66.0,29.93,WNW,298,3.0,5.0,92,0.00,,,0.49,weatherlink.com 1.10,2013-06-04 03:29:00,
2013-06-03 23:44:00,68.8,66.0,29.94,NW,308,6.0,8.0,89,0.00,,,0.49,weatherlink.com 1.10,2013-06-04 03:44:00,
2013-06-03 23:59:00,68.9,65.0,29.95,NW,309,9.0,9.0,86,0.00,,,0.49,weatherlink.com 1.10,2013-06-04 03:59:00,